createdAt,value
2017-07-18T00:00:11.019Z,18.15
2017-07-18T00:02:38.464Z,18.12
2017-07-18T00:05:05.886Z,18.07
2017-07-18T00:07:33.639Z,18.10
2017-07-18T00:10:01.074Z,18.09
2017-07-18T00:12:28.479Z,18.05
2017-07-18T00:14:56.411Z,18.04
2017-07-18T00:17:23.827Z,18.00
2017-07-18T00:19:51.246Z,18.01
2017-07-18T00:22:19.003Z,17.96
2017-07-18T00:24:46.432Z,17.92
2017-07-18T00:27:13.850Z,17.88
2017-07-18T00:29:41.622Z,17.89
2017-07-18T00:32:09.038Z,17.86
2017-07-18T00:34:36.500Z,17.88
2017-07-18T00:37:05.243Z,17.89
2017-07-18T00:39:32.649Z,17.79
2017-07-18T00:42:00.072Z,17.81
2017-07-18T00:44:27.538Z,17.77
2017-07-18T00:46:54.958Z,17.75
2017-07-18T00:49:22.390Z,17.75
2017-07-18T00:51:49.842Z,17.79
2017-07-18T00:54:18.365Z,17.78
2017-07-18T00:56:45.791Z,17.74
2017-07-18T00:59:13.436Z,17.71
2017-07-18T01:01:40.863Z,17.66
2017-07-18T01:04:08.317Z,17.67
2017-07-18T01:06:36.107Z,17.61
2017-07-18T01:09:03.539Z,17.55
2017-07-18T01:11:30.959Z,17.52
2017-07-18T01:13:58.678Z,17.50
2017-07-18T01:16:26.114Z,17.56
2017-07-18T01:18:53.523Z,17.51
2017-07-18T01:21:21.246Z,17.43
2017-07-18T01:23:48.675Z,17.46
2017-07-18T01:26:16.083Z,17.42
2017-07-18T01:28:43.571Z,17.39
2017-07-18T01:31:10.991Z,17.45
2017-07-18T01:33:38.414Z,17.36
2017-07-18T01:36:05.890Z,17.38
2017-07-18T01:38:33.319Z,17.45
2017-07-18T01:41:00.747Z,17.34
2017-07-18T01:43:28.330Z,17.35
2017-07-18T01:45:55.750Z,17.24
2017-07-18T01:48:23.168Z,17.19
2017-07-18T01:50:50.644Z,17.23
2017-07-18T01:53:18.070Z,17.17
2017-07-18T01:55:45.499Z,17.11
2017-07-18T01:58:13.130Z,17.07
2017-07-18T02:00:40.547Z,17.03
2017-07-18T02:03:07.971Z,16.99
2017-07-18T02:05:35.415Z,16.99
2017-07-18T02:08:02.827Z,17.02
2017-07-18T02:10:30.248Z,16.94
2017-07-18T02:12:57.690Z,16.88
2017-07-18T02:15:25.118Z,16.90
2017-07-18T02:17:52.563Z,16.86
2017-07-18T02:20:20.246Z,16.86
2017-07-18T02:22:47.656Z,16.81
2017-07-18T02:25:15.076Z,16.83
2017-07-18T02:27:42.998Z,16.82
2017-07-18T02:32:37.418Z,16.83
2017-07-18T02:35:05.007Z,16.87
2017-07-18T02:37:32.428Z,16.83
2017-07-18T02:39:59.851Z,16.77
2017-07-18T02:42:27.443Z,16.77
2017-07-18T02:44:54.860Z,16.71
2017-07-18T02:47:22.280Z,16.69
2017-07-18T02:49:49.805Z,16.72
2017-07-18T02:52:17.220Z,16.81
2017-07-18T02:54:44.646Z,16.83
2017-07-18T02:57:12.217Z,16.78
2017-07-18T02:59:39.668Z,16.70
2017-07-18T03:02:07.088Z,16.60
2017-07-18T03:04:34.514Z,16.43
2017-07-18T03:07:01.936Z,16.34
2017-07-18T03:09:29.355Z,16.27
2017-07-18T03:11:56.798Z,16.23
2017-07-18T03:14:24.212Z,16.17
2017-07-18T03:16:51.635Z,16.10
2017-07-18T03:19:19.105Z,16.03
2017-07-18T03:21:46.536Z,15.96
2017-07-18T03:24:25.997Z,15.91
2017-07-18T03:26:53.428Z,15.85
2017-07-18T03:29:20.859Z,15.80
2017-07-18T03:31:48.388Z,15.75
2017-07-18T03:34:15.807Z,15.74
2017-07-18T03:36:43.231Z,15.67
2017-07-18T03:39:10.771Z,15.66
2017-07-18T03:41:38.186Z,15.63
2017-07-18T03:44:05.595Z,15.58
2017-07-18T03:46:33.027Z,15.53
2017-07-18T03:49:00.443Z,15.49
2017-07-18T03:51:27.862Z,15.48
2017-07-18T03:53:55.308Z,15.44
2017-07-18T03:56:22.736Z,15.41
2017-07-18T03:58:50.143Z,15.38
2017-07-18T04:01:17.669Z,15.37
2017-07-18T04:03:45.078Z,15.41
2017-07-18T04:06:14.492Z,15.38
2017-07-18T04:08:41.925Z,15.35
2017-07-18T04:11:09.340Z,15.36
2017-07-18T04:13:36.746Z,15.35
2017-07-18T04:16:04.216Z,15.34
2017-07-18T04:18:31.639Z,15.33
2017-07-18T04:20:59.054Z,15.31
2017-07-18T04:23:26.483Z,15.33
2017-07-18T04:25:53.887Z,15.34
2017-07-18T04:28:21.303Z,15.35
2017-07-18T04:30:48.978Z,15.34
2017-07-18T04:33:16.386Z,15.34
2017-07-18T04:35:43.794Z,15.38
2017-07-18T04:38:11.583Z,15.41
2017-07-18T04:40:38.983Z,15.40
2017-07-18T04:43:06.399Z,15.41
2017-07-18T04:45:33.836Z,15.40
2017-07-18T04:48:01.242Z,15.43
2017-07-18T04:50:28.659Z,15.49
2017-07-18T04:52:56.094Z,15.50
2017-07-18T04:55:23.502Z,15.56
2017-07-18T04:57:50.936Z,15.64
2017-07-18T05:00:18.427Z,15.71
2017-07-18T05:02:45.838Z,15.76
2017-07-18T05:05:13.250Z,15.82
2017-07-18T05:07:41.043Z,15.87
2017-07-18T05:10:08.454Z,15.92
2017-07-18T05:12:35.871Z,15.93
2017-07-18T05:15:03.336Z,16.00
2017-07-18T05:17:30.747Z,16.06
2017-07-18T05:19:58.159Z,16.14
2017-07-18T05:22:25.935Z,16.23
2017-07-18T05:24:53.346Z,16.30
2017-07-18T05:27:20.750Z,16.39
2017-07-18T05:29:48.285Z,16.46
2017-07-18T05:32:15.709Z,16.54
2017-07-18T05:34:43.114Z,16.62
2017-07-18T05:37:10.959Z,16.71
2017-07-18T05:39:38.377Z,16.82
2017-07-18T05:42:05.794Z,16.90
2017-07-18T05:44:33.374Z,16.95
2017-07-18T05:47:00.783Z,17.03
2017-07-18T05:49:28.222Z,17.10
2017-07-18T05:51:56.143Z,17.23
2017-07-18T05:54:23.557Z,17.34
2017-07-18T05:56:50.988Z,17.46
2017-07-18T05:59:18.554Z,17.55
2017-07-18T06:01:45.967Z,17.65
2017-07-18T06:04:13.427Z,17.74
2017-07-18T06:06:41.419Z,17.84
2017-07-18T06:09:08.875Z,17.95
2017-07-18T06:11:36.319Z,18.03
2017-07-18T06:14:04.087Z,18.10
2017-07-18T06:16:31.533Z,18.19
2017-07-18T06:18:58.962Z,18.27
2017-07-18T06:21:26.838Z,18.32
2017-07-18T06:23:54.250Z,18.38
2017-07-18T06:26:21.673Z,18.46
2017-07-18T06:28:49.208Z,18.54
2017-07-18T06:31:16.660Z,18.63
2017-07-18T06:33:44.170Z,18.75
2017-07-18T06:36:11.756Z,18.88
2017-07-18T06:38:39.169Z,19.01
2017-07-18T06:41:06.587Z,19.18
2017-07-18T06:43:34.154Z,19.32
2017-07-18T06:46:01.570Z,19.50
2017-07-18T06:48:28.988Z,19.73
2017-07-18T06:50:56.713Z,19.87
2017-07-18T06:53:24.141Z,20.01
2017-07-18T06:55:51.558Z,20.13
2017-07-18T06:58:19.043Z,20.21
2017-07-18T07:00:46.443Z,20.30
2017-07-18T07:03:13.847Z,20.36
2017-07-18T07:05:41.275Z,20.41
2017-07-18T07:08:08.678Z,20.50
2017-07-18T07:10:36.099Z,20.60
2017-07-18T07:13:04.407Z,20.68
2017-07-18T07:15:31.831Z,20.80
2017-07-18T07:17:59.242Z,20.92
2017-07-18T07:20:27.025Z,21.01
2017-07-18T07:22:54.479Z,21.14
2017-07-18T07:25:23.207Z,21.33
2017-07-18T07:27:50.620Z,21.41
2017-07-18T07:30:18.028Z,21.52
2017-07-18T07:32:45.438Z,21.62
2017-07-18T07:35:12.901Z,21.64
2017-07-18T07:37:40.315Z,21.70
2017-07-18T07:40:07.728Z,21.72
2017-07-18T07:42:35.604Z,21.75
2017-07-18T07:45:03.034Z,21.80
2017-07-18T07:47:31.227Z,21.90
2017-07-18T07:49:59.107Z,21.99
2017-07-18T07:52:26.526Z,22.15
2017-07-18T07:54:53.942Z,22.26
2017-07-18T07:57:21.384Z,22.36
2017-07-18T07:59:48.811Z,22.42
2017-07-18T08:02:16.218Z,22.58
2017-07-18T08:04:43.762Z,22.74
2017-07-18T08:07:11.223Z,22.84
2017-07-18T08:09:38.632Z,22.94
2017-07-18T08:12:06.233Z,23.01
2017-07-18T08:14:33.658Z,23.03
2017-07-18T08:17:01.062Z,23.10
2017-07-18T08:19:28.491Z,23.25
2017-07-18T08:21:56.874Z,23.35
2017-07-18T08:24:24.326Z,23.28
2017-07-18T08:26:51.939Z,23.45
2017-07-18T08:29:19.403Z,23.51
2017-07-18T08:31:46.814Z,23.50
2017-07-18T08:34:14.442Z,23.53
2017-07-18T08:36:41.845Z,23.48
2017-07-18T08:39:09.263Z,23.56
2017-07-18T08:41:36.794Z,23.70
2017-07-18T08:44:04.202Z,23.80
2017-07-18T08:46:31.610Z,23.90
2017-07-18T08:48:59.063Z,24.02
2017-07-18T08:51:26.498Z,24.20
2017-07-18T08:53:53.911Z,24.26
2017-07-18T08:56:21.341Z,24.35
2017-07-18T08:58:48.759Z,24.51
2017-07-18T09:01:16.167Z,24.59
2017-07-18T09:03:43.714Z,24.82
2017-07-18T09:06:11.123Z,24.92
2017-07-18T09:08:38.530Z,24.90
2017-07-18T09:11:06.103Z,25.05
2017-07-18T09:13:34.638Z,24.97
2017-07-18T09:16:02.054Z,25.13
2017-07-18T09:18:29.895Z,25.08
2017-07-18T09:20:57.310Z,25.17
2017-07-18T09:23:24.710Z,25.17
2017-07-18T09:25:52.238Z,25.38
2017-07-18T09:28:19.655Z,25.49
2017-07-18T09:30:47.067Z,25.50
2017-07-18T09:33:14.634Z,25.66
2017-07-18T09:35:42.043Z,25.67
2017-07-18T09:38:09.454Z,26.00
2017-07-18T09:40:37.053Z,26.45
2017-07-18T09:43:04.462Z,26.72
2017-07-18T09:45:31.878Z,26.98
2017-07-18T09:47:59.585Z,27.12
2017-07-18T09:50:27.008Z,27.63
2017-07-18T09:52:54.417Z,28.03
2017-07-18T09:55:22.171Z,28.10
2017-07-18T09:57:49.574Z,28.31
2017-07-18T10:00:16.982Z,28.49
2017-07-18T10:02:44.430Z,28.68
2017-07-18T10:05:11.837Z,28.51
2017-07-18T10:07:39.242Z,29.27
2017-07-18T10:10:06.816Z,29.88
2017-07-18T10:12:34.223Z,30.02
2017-07-18T10:15:01.630Z,29.76
2017-07-18T10:17:29.156Z,30.02
2017-07-18T10:19:56.563Z,30.28
2017-07-18T10:22:23.966Z,30.76
2017-07-18T10:24:51.855Z,30.93
2017-07-18T10:27:19.268Z,31.15
2017-07-18T10:29:46.679Z,31.43
2017-07-18T10:32:14.104Z,31.18
2017-07-18T10:34:41.514Z,31.66
2017-07-18T10:37:08.919Z,31.64
2017-07-18T10:39:36.351Z,32.27
2017-07-18T10:42:03.766Z,32.51
2017-07-18T10:44:31.169Z,32.53
2017-07-18T10:46:58.603Z,32.00
2017-07-18T10:49:26.016Z,32.60
2017-07-18T10:51:53.421Z,32.38
2017-07-18T10:54:20.842Z,32.70
2017-07-18T10:56:48.263Z,32.78
2017-07-18T10:59:15.695Z,32.89
2017-07-18T11:01:43.111Z,33.40
2017-07-18T11:04:10.523Z,33.56
2017-07-18T11:06:37.930Z,34.03
2017-07-18T11:09:05.678Z,34.01
2017-07-18T11:11:33.102Z,34.16
2017-07-18T11:14:00.511Z,34.41
2017-07-18T11:16:27.959Z,33.58
2017-07-18T11:18:55.382Z,33.39
2017-07-18T11:21:22.831Z,33.01
2017-07-18T11:23:50.345Z,32.98
2017-07-18T11:26:17.762Z,32.32
2017-07-18T11:28:45.198Z,32.26
2017-07-18T11:31:12.830Z,32.25
2017-07-18T11:33:40.262Z,32.88
2017-07-18T11:36:07.679Z,33.17
2017-07-18T11:38:44.802Z,32.99
2017-07-18T11:41:12.219Z,33.24
2017-07-18T11:43:39.623Z,32.99
2017-07-18T11:46:07.428Z,32.83
2017-07-18T11:48:34.843Z,32.81
2017-07-18T11:51:02.270Z,33.11
2017-07-18T11:53:30.676Z,33.28
2017-07-18T11:55:58.094Z,33.78
2017-07-18T11:58:25.523Z,34.20
2017-07-18T12:00:53.006Z,34.60
2017-07-18T12:03:20.426Z,34.46
2017-07-18T12:05:47.852Z,33.97
2017-07-18T12:08:15.505Z,33.74
2017-07-18T12:10:42.956Z,33.56
2017-07-18T12:13:10.391Z,33.75
2017-07-18T12:15:37.889Z,34.20
2017-07-18T12:18:05.342Z,33.80
2017-07-18T12:20:32.742Z,34.05
2017-07-18T12:23:00.327Z,34.48
2017-07-18T12:25:27.751Z,34.08
2017-07-18T12:27:55.156Z,34.55
2017-07-18T12:30:22.592Z,33.98
2017-07-18T12:32:50.022Z,33.83
2017-07-18T12:35:17.436Z,33.71
2017-07-18T12:37:44.899Z,33.18
2017-07-18T12:40:12.338Z,33.39
2017-07-18T12:42:39.770Z,32.96
2017-07-18T12:45:07.328Z,33.41
2017-07-18T12:47:34.745Z,33.92
2017-07-18T12:50:02.217Z,34.25
2017-07-18T12:52:29.771Z,33.87
2017-07-18T12:54:57.217Z,33.82
2017-07-18T12:57:24.631Z,33.14
2017-07-18T12:59:52.107Z,32.95
2017-07-18T13:02:19.529Z,32.58
2017-07-18T13:04:46.942Z,32.31
2017-07-18T13:07:14.525Z,32.15
2017-07-18T13:09:41.950Z,32.49
2017-07-18T13:12:09.361Z,32.95
2017-07-18T13:14:36.915Z,32.36
2017-07-18T13:17:04.559Z,32.42
2017-07-18T13:19:31.978Z,32.91
2017-07-18T13:21:59.474Z,33.43
2017-07-18T13:24:26.907Z,33.44
2017-07-18T13:26:54.319Z,33.06
2017-07-18T13:29:22.164Z,32.61
2017-07-18T13:31:49.583Z,32.49
2017-07-18T13:34:16.998Z,32.51
2017-07-18T13:36:44.802Z,31.99
2017-07-18T13:39:12.224Z,32.09
2017-07-18T13:41:39.641Z,32.42
2017-07-18T13:44:07.115Z,32.31
2017-07-18T13:46:34.540Z,32.05
2017-07-18T13:49:01.962Z,31.87
2017-07-18T13:51:29.559Z,32.39
2017-07-18T13:53:57.322Z,32.43
2017-07-18T13:56:24.762Z,32.79
2017-07-18T13:58:52.258Z,33.04
2017-07-18T14:01:19.724Z,33.34
2017-07-18T14:03:47.183Z,33.42
2017-07-18T14:06:15.790Z,33.69
2017-07-18T14:08:44.003Z,33.21
2017-07-18T14:11:12.314Z,33.61
2017-07-18T14:13:39.742Z,33.69
2017-07-18T14:16:07.170Z,33.67
2017-07-18T14:18:34.582Z,33.64
2017-07-18T14:21:02.063Z,33.66
2017-07-18T14:23:29.490Z,33.18
2017-07-18T14:25:56.906Z,32.55
2017-07-18T14:28:24.375Z,32.24
2017-07-18T14:30:51.804Z,32.48
2017-07-18T14:33:19.722Z,32.75
2017-07-18T14:35:47.255Z,32.85
2017-07-18T14:38:14.664Z,33.02
2017-07-18T14:40:42.110Z,33.07
2017-07-18T14:43:09.548Z,32.79
2017-07-18T14:45:36.953Z,32.65
2017-07-18T14:48:04.386Z,32.15
2017-07-18T14:50:32.170Z,31.94
2017-07-18T14:52:59.681Z,31.98
2017-07-18T14:55:27.111Z,32.13
2017-07-18T14:57:54.642Z,32.25
2017-07-18T15:00:22.074Z,32.21
2017-07-18T15:02:49.489Z,32.33
2017-07-18T15:05:16.987Z,32.29
2017-07-18T15:07:44.446Z,32.38
2017-07-18T15:10:11.855Z,32.40
2017-07-18T15:12:39.554Z,32.39
2017-07-18T15:15:07.004Z,32.50
2017-07-18T15:17:34.426Z,32.40
2017-07-18T15:20:01.988Z,32.19
2017-07-18T15:22:29.394Z,32.21
2017-07-18T15:24:56.810Z,31.84
2017-07-18T15:27:24.543Z,31.96
2017-07-18T15:29:52.736Z,31.97
2017-07-18T15:32:20.150Z,32.01
2017-07-18T15:34:47.584Z,31.71
2017-07-18T15:37:15.007Z,31.71
2017-07-18T15:39:42.430Z,31.83
2017-07-18T15:42:10.722Z,31.51
2017-07-18T15:44:38.131Z,31.56
2017-07-18T15:47:05.554Z,31.41
2017-07-18T15:49:33.470Z,31.34
2017-07-18T15:52:00.870Z,31.42
2017-07-18T15:54:28.282Z,31.49
2017-07-18T15:56:55.873Z,31.51
2017-07-18T15:59:23.290Z,31.52
2017-07-18T16:01:50.718Z,31.55
2017-07-18T16:04:18.390Z,31.56
2017-07-18T16:06:45.868Z,31.58
2017-07-18T16:09:13.274Z,31.40
2017-07-18T16:11:40.726Z,31.31
2017-07-18T16:14:08.164Z,31.40
2017-07-18T16:16:35.562Z,31.36
2017-07-18T16:19:03.335Z,31.15
2017-07-18T16:21:30.762Z,30.95
2017-07-18T16:23:58.214Z,31.07
2017-07-18T16:26:25.730Z,30.80
2017-07-18T16:28:53.141Z,31.06
2017-07-18T16:31:20.550Z,31.02
2017-07-18T16:33:47.986Z,30.99
2017-07-18T16:36:15.399Z,30.77
2017-07-18T16:38:42.812Z,30.94
2017-07-18T16:41:10.291Z,30.73
2017-07-18T16:43:37.694Z,30.93
2017-07-18T16:46:05.103Z,30.99
2017-07-18T16:48:32.676Z,31.05
2017-07-18T16:51:00.078Z,31.08
2017-07-18T16:53:27.498Z,31.08
2017-07-18T16:55:55.026Z,30.83
2017-07-18T16:58:22.445Z,30.90
2017-07-18T17:00:49.866Z,30.92
2017-07-18T17:03:17.432Z,30.72
2017-07-18T17:05:44.840Z,30.82
2017-07-18T17:08:12.259Z,30.86
2017-07-18T17:10:39.855Z,30.78
2017-07-18T17:13:07.278Z,30.70
2017-07-18T17:15:34.678Z,30.64
2017-07-18T17:18:02.138Z,30.70
2017-07-18T17:20:29.536Z,30.72
2017-07-18T17:22:56.947Z,30.57
2017-07-18T17:25:24.545Z,30.45
2017-07-18T17:27:51.961Z,30.33
2017-07-18T17:30:19.368Z,30.29
2017-07-18T17:32:46.822Z,30.43
2017-07-18T17:35:18.918Z,30.43
2017-07-18T17:37:46.330Z,30.41
2017-07-18T17:40:13.793Z,30.40
2017-07-18T17:42:41.202Z,30.35
2017-07-18T17:45:08.645Z,30.33
2017-07-18T17:47:36.066Z,30.26
2017-07-18T17:50:03.483Z,30.18
2017-07-18T17:52:31.004Z,30.13
2017-07-18T17:54:58.418Z,30.09
2017-07-18T17:57:25.835Z,30.04
2017-07-18T17:59:53.272Z,30.02
2017-07-18T18:02:21.729Z,29.97
2017-07-18T18:04:49.138Z,29.94
2017-07-18T18:07:17.037Z,29.91
2017-07-18T18:09:45.146Z,29.84
2017-07-18T18:12:13.427Z,29.77
2017-07-18T18:14:41.206Z,29.72
2017-07-18T18:17:08.619Z,29.68
2017-07-18T18:19:36.037Z,29.62
2017-07-18T18:22:03.806Z,29.56
2017-07-18T18:24:31.222Z,29.56
2017-07-18T18:26:58.630Z,29.53
2017-07-18T18:29:26.062Z,29.51
2017-07-18T18:31:53.489Z,29.44
2017-07-18T18:34:20.910Z,29.36
2017-07-18T18:36:48.563Z,29.31
2017-07-18T18:39:15.985Z,29.27
2017-07-18T18:41:43.399Z,29.18
2017-07-18T18:44:10.983Z,29.13
2017-07-18T18:46:38.402Z,29.05
2017-07-18T18:49:05.973Z,28.96
2017-07-18T18:51:33.461Z,28.88
2017-07-18T18:54:00.937Z,28.81
2017-07-18T18:56:28.352Z,28.60
2017-07-18T18:58:55.790Z,28.49
2017-07-18T19:01:23.224Z,28.24
2017-07-18T19:03:50.635Z,28.06
2017-07-18T19:06:18.204Z,27.94
2017-07-18T19:08:45.611Z,27.80
2017-07-18T19:11:13.024Z,27.73
2017-07-18T19:13:40.499Z,27.56
2017-07-18T19:16:07.914Z,27.33
2017-07-18T19:18:35.330Z,27.24
2017-07-18T19:21:02.935Z,27.17
2017-07-18T19:23:30.348Z,27.04
2017-07-18T19:26:04.150Z,26.98
2017-07-18T19:28:31.572Z,26.93
2017-07-18T19:30:58.995Z,26.84
2017-07-18T19:33:26.591Z,26.76
2017-07-18T19:35:54.015Z,26.62
2017-07-18T19:38:21.440Z,26.43
2017-07-18T19:40:48.874Z,26.36
2017-07-18T19:43:16.394Z,26.25
2017-07-18T19:45:43.933Z,26.17
2017-07-18T19:48:11.539Z,26.02
2017-07-18T19:50:38.974Z,25.98
2017-07-18T19:53:06.391Z,25.94
2017-07-18T19:55:34.086Z,25.91
2017-07-18T19:58:01.498Z,25.90
2017-07-18T20:00:28.923Z,25.82
2017-07-18T20:02:56.456Z,25.71
2017-07-18T20:05:23.870Z,25.67
2017-07-18T20:07:51.283Z,25.72
2017-07-18T20:10:18.886Z,25.63
2017-07-18T20:12:46.306Z,25.55
2017-07-18T20:15:13.726Z,25.52
2017-07-18T20:17:41.650Z,25.45
2017-07-18T20:20:09.073Z,25.44
2017-07-18T20:22:36.487Z,25.34
2017-07-18T20:25:04.252Z,25.28
2017-07-18T20:27:31.680Z,25.30
2017-07-18T20:29:59.094Z,25.27
2017-07-18T20:32:26.558Z,25.18
2017-07-18T20:34:53.978Z,25.14
2017-07-18T20:37:21.394Z,25.12
2017-07-18T20:39:48.943Z,25.03
2017-07-18T20:42:16.364Z,24.99
2017-07-18T20:44:43.841Z,24.99
2017-07-18T20:47:11.552Z,24.92
2017-07-18T20:49:38.974Z,24.95
2017-07-18T20:52:06.390Z,24.89
2017-07-18T20:54:34.335Z,24.81
2017-07-18T20:57:01.750Z,24.75
2017-07-18T20:59:29.171Z,24.76
2017-07-18T21:01:56.622Z,24.67
2017-07-18T21:04:24.042Z,24.65
2017-07-18T21:06:51.457Z,24.61
2017-07-18T21:09:19.298Z,24.56
2017-07-18T21:11:46.719Z,24.53
2017-07-18T21:14:14.136Z,24.44
2017-07-18T21:16:41.567Z,24.42
2017-07-18T21:19:08.982Z,24.37
2017-07-18T21:21:36.398Z,24.32
2017-07-18T21:24:04.026Z,24.26
2017-07-18T21:26:31.447Z,24.22
2017-07-18T21:28:58.862Z,24.20
2017-07-18T21:31:26.295Z,24.18
2017-07-18T21:33:53.710Z,24.16
2017-07-18T21:36:21.126Z,24.10
2017-07-18T21:38:48.659Z,24.10
2017-07-18T21:41:16.082Z,24.08
2017-07-18T21:43:43.499Z,24.02
2017-07-18T21:46:10.967Z,24.04
2017-07-18T21:48:38.378Z,23.99
2017-07-18T21:51:05.794Z,24.04
2017-07-18T21:53:33.253Z,23.99
2017-07-18T21:56:00.650Z,23.94
2017-07-18T21:58:28.066Z,23.93
2017-07-18T22:00:55.510Z,23.87
2017-07-18T22:03:22.923Z,23.89
2017-07-18T22:05:50.365Z,23.89
2017-07-18T22:08:17.882Z,23.85
2017-07-18T22:10:45.299Z,23.86
2017-07-18T22:13:12.713Z,23.93
2017-07-18T22:15:40.295Z,23.90
2017-07-18T22:18:07.715Z,23.95
2017-07-18T22:20:35.138Z,23.91
2017-07-18T22:23:02.715Z,24.00
2017-07-18T22:25:30.135Z,24.04
2017-07-18T22:27:57.550Z,24.00
2017-07-18T22:30:24.982Z,24.01
2017-07-18T22:32:52.400Z,24.04
2017-07-18T22:35:19.814Z,24.08
2017-07-18T22:37:47.745Z,24.14
2017-07-18T22:40:15.165Z,24.19
2017-07-18T22:42:42.583Z,24.22
2017-07-18T22:45:10.162Z,24.24
2017-07-18T22:47:37.579Z,24.30
2017-07-18T22:50:04.994Z,24.25
2017-07-18T22:52:32.666Z,24.29
2017-07-18T22:55:00.079Z,24.29
2017-07-18T22:57:27.493Z,24.24
2017-07-18T22:59:55.273Z,24.23
2017-07-18T23:02:22.695Z,24.24
2017-07-18T23:04:50.112Z,24.27
2017-07-18T23:07:17.851Z,24.21
2017-07-18T23:09:45.267Z,24.20
2017-07-18T23:12:12.681Z,24.14
2017-07-18T23:14:40.295Z,24.20
2017-07-18T23:17:07.713Z,24.19
2017-07-18T23:19:35.134Z,24.17
2017-07-18T23:22:02.862Z,24.13
2017-07-18T23:24:30.279Z,24.18
2017-07-18T23:26:57.694Z,24.19
2017-07-18T23:29:25.378Z,24.21
2017-07-18T23:31:52.795Z,24.20
2017-07-18T23:34:20.208Z,24.19
2017-07-18T23:36:47.954Z,24.19
2017-07-18T23:39:15.370Z,24.04
2017-07-18T23:41:42.789Z,24.05
2017-07-18T23:44:10.534Z,24.00
2017-07-18T23:46:37.954Z,24.04
2017-07-18T23:49:05.366Z,24.02
2017-07-18T23:51:32.910Z,24.04
2017-07-18T23:54:00.326Z,24.02
2017-07-18T23:56:27.738Z,24.04
2017-07-18T23:58:55.207Z,23.98
